Bladen County Hospital, NC

4:02 PM EDT on June 03, 2015 (GMT -0400)
RAWS | | Change Station
CLOSE
Current Station
Personal Weather Station
Location: Elizabethtown, NC
Elevation: 100 ft
Nearby Weather Stations

Elev 100 ft 34.68 °N, 78.58 °W | Updated 44 minutes ago

Overcast
Overcast
78 °F
Feels Like 80 °F
N
3
Wind Variable Wind from East
Gusts 8.0 mph

Today
High -- | Low -- °F
--% Chance of Precip.
Yesterday
High -- | Low -- °F
Precip. -- in
6:02 AM 8:23 PM
Full, 98% visible
Pressure 30.01 in
Visibility 10.0 miles
Clouds Scattered Clouds 1600 ft
Scattered Clouds 3900 ft
Overcast 5000 ft
Heat Index 80 °F
Dew Point 69 °F
Humidity 74%
Rainfall in
Snow Depth Not available.
UV 2 out of 12
Pollen .70 out of 12
Air Quality Not available.
Flu Activity No Activity
METAR KEYF 031955Z AUTO 00000KT 10SM SCT016 SCT039 OVC050 24/20 A3001 RMK AO2 T02410198

More Conditions Fewer Conditions

Pressure 30.01 in
Visibility 10.0 miles
Clouds Scattered Clouds 1600 ft
Scattered Clouds 3900 ft
Overcast 5000 ft
Heat Index 80 °F
Dew Point 69 °F
Humidity 74%
Rainfall in
Snow Depth Not available.
UV 2 out of 12
Pollen .70 out of 12
Air Quality Not available.
Flu Activity No Activity
METAR KEYF 031955Z AUTO 00000KT 10SM SCT016 SCT039 OVC050 24/20 A3001 RMK AO2 T02410198

More Conditions Fewer Conditions

10-Day Weather Forecast

×

Almanac

Astronomy

Jun. 03, 2015 Rise Set
Actual Time
Civil Twilight
Nautical Twilight
Astronomical Twilight
Moon
Length of Visible Light
Length of Day
Tomorrow will be .
, % of the Moon is Illuminated

Today's Extremes

State Highs State Lows

Community

WunderPhotos

Upload Photos

1,826,277 photos uploaded!

WunderBlogs® & News

Nearby

Air Quality

  Air Quality AQ Index Pollutant
Not available.

Snow Depth

Station Depth Elevation

Earthquake Activity

City Distance Mag. Time & Date
Minimum magnitude displayed is 2.5.

Coastal Water Temperatures

Place Temperature

Stations

Nearby Weather Stations

Station Location Temp. Windchill Dew Point Humidity Wind Precip. Elev Updated Type